Terminal Aerodrome Forecast
Issued by NWS Louisville, KY

Home | Current Version | Previous Version | Text Only | Print | Product List | Glossary On
Versions: 1 2 3 4 5 6 7 8 9 10 11 12 13 14 15 16 17 18 19 20 21 22 23
428
FTUS43 KLMK 152334
TAFBWG
TAF
KBWG 152334Z 1600/1624 25007KT P6SM OVC014
      TEMPO 1600/1603 OVC008
     FM160300 28005KT P6SM FEW015
     FM160700 30005KT 3SM BR SKC
     FM161200 33005KT P6SM FEW030 SCT150=

USA.gov is the U.S. government's official web portal to all federal, state and local government web resources and services.